createdAt,value
2018-12-13T00:00:56.915Z,16.90
2018-12-13T00:03:27.928Z,12.87
2018-12-13T00:05:57.132Z,8.67
2018-12-13T00:08:30.835Z,8.60
2018-12-13T00:11:04.877Z,7.53
2018-12-13T00:13:38.688Z,12.90
2018-12-13T00:16:12.604Z,7.27
2018-12-13T00:18:46.676Z,7.80
2018-12-13T00:21:31.263Z,7.83
2018-12-13T00:24:05.579Z,8.30
2018-12-13T00:26:40.509Z,7.90
2018-12-13T00:29:12.409Z,7.80
2018-12-13T00:31:45.980Z,8.63
2018-12-13T00:34:20.055Z,9.97
2018-12-13T00:36:52.014Z,10.50
2018-12-13T00:39:23.414Z,9.33
2018-12-13T00:41:55.293Z,10.40
2018-12-13T00:44:27.009Z,9.90
2018-12-13T00:47:01.763Z,10.60
2018-12-13T00:49:33.542Z,11.80
2018-12-13T00:52:03.492Z,8.30
2018-12-13T00:54:34.548Z,8.37
2018-12-13T00:57:06.078Z,7.97
2018-12-13T00:59:37.727Z,8.17
2018-12-13T01:02:08.278Z,7.83
2018-12-13T01:04:40.201Z,9.30
2018-12-13T01:07:11.544Z,8.43
2018-12-13T01:09:40.694Z,12.67
2018-12-13T01:12:11.858Z,9.80
2018-12-13T01:14:43.759Z,9.50
2018-12-13T01:17:13.727Z,8.53
2018-12-13T01:19:44.977Z,8.63
2018-12-13T01:22:19.527Z,10.17
2018-12-13T01:24:51.478Z,9.30
2018-12-13T01:27:25.650Z,9.13
2018-12-13T01:30:00.891Z,7.30
2018-12-13T01:32:30.376Z,7.57
2018-12-13T01:35:02.401Z,8.37
2018-12-13T01:37:36.853Z,7.63
2018-12-13T01:40:08.605Z,10.37
2018-12-13T01:42:40.120Z,7.83
2018-12-13T01:45:12.240Z,8.87
2018-12-13T01:47:45.818Z,8.23
2018-12-13T01:50:18.149Z,8.77
2018-12-13T01:52:50.334Z,9.13
2018-12-13T01:55:24.647Z,7.77
2018-12-13T01:57:56.218Z,7.73
2018-12-13T02:00:30.768Z,7.10
2018-12-13T02:03:04.885Z,9.50
2018-12-13T02:05:36.264Z,8.40
2018-12-13T02:08:09.206Z,8.57
2018-12-13T02:10:40.335Z,9.67
2018-12-13T02:13:12.415Z,8.43
2018-12-13T02:15:44.356Z,10.63
2018-12-13T02:18:18.739Z,8.93
2018-12-13T02:20:50.257Z,8.73
2018-12-13T02:23:21.406Z,8.10
2018-12-13T02:25:53.504Z,8.33
2018-12-13T02:28:25.346Z,8.17
2018-12-13T02:30:57.406Z,9.10
2018-12-13T02:33:30.367Z,8.33
2018-12-13T02:36:00.422Z,9.20
2018-12-13T02:38:32.356Z,9.27
2018-12-13T02:41:06.623Z,11.07
2018-12-13T02:43:41.358Z,13.90
2018-12-13T02:46:13.027Z,9.10
2018-12-13T02:48:43.076Z,8.47
2018-12-13T02:51:13.851Z,7.77
2018-12-13T02:53:48.310Z,9.53
2018-12-13T02:56:22.267Z,12.27
2018-12-13T02:58:58.073Z,9.67
2018-12-13T03:01:27.706Z,10.57
2018-12-13T03:04:01.251Z,9.80
2018-12-13T03:06:35.863Z,8.73
2018-12-13T03:09:17.586Z,9.17
2018-12-13T03:11:48.817Z,10.53
2018-12-13T03:14:23.288Z,8.80
2018-12-13T03:16:51.990Z,8.90
2018-12-13T03:19:26.707Z,10.17
2018-12-13T03:22:00.605Z,9.30
2018-12-13T03:24:30.153Z,8.63
2018-12-13T03:27:02.605Z,9.57
2018-12-13T03:29:36.644Z,9.23
2018-12-13T03:32:07.303Z,10.70
2018-12-13T03:34:38.399Z,8.27
2018-12-13T03:37:09.854Z,11.30
2018-12-13T03:42:12.718Z,11.37
2018-12-13T03:44:44.738Z,9.53
2018-12-13T03:47:15.011Z,11.60
2018-12-13T03:49:46.955Z,8.93
2018-12-13T03:52:19.145Z,14.43
2018-12-13T03:54:53.445Z,10.23
2018-12-13T03:57:27.434Z,10.10
2018-12-13T03:59:59.035Z,9.53
2018-12-13T04:02:30.289Z,12.40
2018-12-13T04:05:04.677Z,16.23
2018-12-13T04:07:35.929Z,13.40
2018-12-13T04:10:10.413Z,16.10
2018-12-13T04:12:44.655Z,11.45
2018-12-13T04:15:16.281Z,12.73
2018-12-13T04:17:48.377Z,13.43
2018-12-13T04:20:23.508Z,12.20
2018-12-13T04:22:55.589Z,11.15
2018-12-13T04:25:28.341Z,10.70
2018-12-13T04:28:03.501Z,12.45
2018-12-13T04:30:37.216Z,17.73
2018-12-13T04:33:11.700Z,17.23
2018-12-13T04:35:46.749Z,15.28
2018-12-13T04:38:18.879Z,27.17
2018-12-13T04:43:19.865Z,25.77
2018-12-13T04:45:51.135Z,19.17
2018-12-13T04:48:23.935Z,17.98
2018-12-13T04:50:55.715Z,16.25
2018-12-13T04:53:25.761Z,14.98
2018-12-13T04:55:57.720Z,11.90
2018-12-13T04:58:29.312Z,12.23
2018-12-13T05:01:01.220Z,12.65
2018-12-13T05:03:35.554Z,10.45
2018-12-13T05:06:09.506Z,13.28
2018-12-13T05:08:43.435Z,13.03
2018-12-13T05:11:15.006Z,13.78
2018-12-13T05:13:46.733Z,19.62
2018-12-13T05:16:24.606Z,18.62
2018-12-13T05:18:58.554Z,17.90
2018-12-13T05:21:26.706Z,19.02
2018-12-13T05:24:00.785Z,14.90
2018-12-13T05:26:34.729Z,14.30
2018-12-13T05:29:06.125Z,13.75
2018-12-13T05:31:36.194Z,15.58
2018-12-13T05:34:08.125Z,14.38
2018-12-13T05:36:40.163Z,13.93
2018-12-13T05:39:14.447Z,14.23
2018-12-13T05:44:21.562Z,11.78
2018-12-13T05:46:51.063Z,18.60
2018-12-13T05:49:22.856Z,14.47
2018-12-13T05:51:57.264Z,18.52
2018-12-13T05:54:31.365Z,19.12
2018-12-13T05:57:02.955Z,19.27
2018-12-13T05:59:33.009Z,20.45
2018-12-13T06:02:01.078Z,19.80
2018-12-13T06:04:32.983Z,16.70
2018-12-13T06:07:07.397Z,19.95
2018-12-13T06:09:39.036Z,26.85
2018-12-13T06:12:12.740Z,14.28
2018-12-13T06:14:44.947Z,15.53
2018-12-13T06:17:16.452Z,15.23
2018-12-13T06:19:47.174Z,20.50
2018-12-13T06:22:18.426Z,20.82
2018-12-13T06:24:49.777Z,21.90
2018-12-13T06:27:21.543Z,18.07
2018-12-13T06:29:58.791Z,17.52
2018-12-13T06:32:30.109Z,16.60
2018-12-13T06:35:02.513Z,12.90
2018-12-13T06:37:34.450Z,14.78
2018-12-13T06:40:06.004Z,14.33
2018-12-13T06:42:37.629Z,16.35
2018-12-13T06:45:11.381Z,14.47
2018-12-13T06:47:43.378Z,19.30
2018-12-13T06:50:15.182Z,13.50
2018-12-13T06:52:47.237Z,12.45
2018-12-13T06:55:18.392Z,15.58
2018-12-13T06:57:50.420Z,12.20
2018-12-13T07:00:24.923Z,15.32
2018-12-13T07:02:59.463Z,14.38
2018-12-13T07:05:30.918Z,14.73
2018-12-13T07:08:07.824Z,13.68
2018-12-13T07:10:38.128Z,16.05
2018-12-13T07:13:12.028Z,17.82
2018-12-13T07:15:41.805Z,14.30
2018-12-13T07:18:16.153Z,14.70
2018-12-13T07:20:47.682Z,18.52
2018-12-13T07:23:22.164Z,19.35
2018-12-13T07:25:53.524Z,17.95
2018-12-13T07:28:22.707Z,21.73
2018-12-13T07:30:54.478Z,25.08
2018-12-13T07:33:26.583Z,22.15
2018-12-13T07:36:00.948Z,22.05
2018-12-13T07:38:35.548Z,17.20
2018-12-13T07:41:07.388Z,30.25
2018-12-13T07:43:42.514Z,21.73
2018-12-13T07:46:17.679Z,16.73
2018-12-13T07:48:56.215Z,18.02
2018-12-13T07:51:23.759Z,20.70
2018-12-13T07:53:55.533Z,22.13
2018-12-13T07:56:29.332Z,18.00
2018-12-13T07:59:00.674Z,17.57
2018-12-13T08:01:29.824Z,17.25
2018-12-13T08:04:01.779Z,20.72
2018-12-13T08:06:33.801Z,20.90
2018-12-13T08:09:08.150Z,31.02
2018-12-13T08:11:39.871Z,19.80
2018-12-13T08:14:09.040Z,21.05
2018-12-13T08:16:41.271Z,14.40
2018-12-13T08:19:12.796Z,19.45
2018-12-13T08:21:44.738Z,14.58
2018-12-13T08:24:16.661Z,17.42
2018-12-13T08:26:48.712Z,15.93
2018-12-13T08:29:23.353Z,15.32
2018-12-13T08:31:54.906Z,13.63
2018-12-13T08:34:29.050Z,15.80
2018-12-13T08:37:00.767Z,18.03
2018-12-13T08:39:31.878Z,12.70
2018-12-13T08:42:02.243Z,12.77
2018-12-13T08:47:00.564Z,13.67
2018-12-13T08:49:30.824Z,13.77
2018-12-13T08:52:02.494Z,11.77
2018-12-13T08:54:34.224Z,13.47
2018-12-13T08:57:07.353Z,10.23
2018-12-13T08:59:41.870Z,16.03
2018-12-13T09:02:13.408Z,14.13
2018-12-13T09:04:47.862Z,15.83
2018-12-13T09:07:19.247Z,13.57
2018-12-13T09:09:51.435Z,11.17
2018-12-13T09:12:23.529Z,15.13
2018-12-13T09:14:55.527Z,15.17
2018-12-13T09:17:25.741Z,13.13
2018-12-13T09:20:00.243Z,9.80
2018-12-13T09:22:33.321Z,10.67
2018-12-13T09:25:03.333Z,11.93
2018-12-13T09:27:33.294Z,12.90
2018-12-13T09:30:06.274Z,11.77
2018-12-13T09:32:37.604Z,14.13
2018-12-13T09:35:09.678Z,11.63
2018-12-13T09:37:47.307Z,11.73
2018-12-13T09:40:14.809Z,12.57
2018-12-13T09:42:48.324Z,14.30
2018-12-13T09:45:19.925Z,12.10
2018-12-13T09:47:50.803Z,11.43
2018-12-13T09:50:19.928Z,11.40
2018-12-13T09:52:54.870Z,11.80
2018-12-13T09:55:29.377Z,16.60
2018-12-13T09:58:00.917Z,7.27
2018-12-13T10:00:32.209Z,10.10
2018-12-13T10:03:05.845Z,9.80
2018-12-13T10:05:37.464Z,11.93
2018-12-13T10:08:09.131Z,8.67
2018-12-13T10:10:41.649Z,11.63
2018-12-13T10:13:15.553Z,8.07
2018-12-13T10:15:50.424Z,10.67
2018-12-13T10:18:22.358Z,9.20
2018-12-13T10:20:54.357Z,10.57
2018-12-13T10:23:25.848Z,10.73
2018-12-13T10:25:59.660Z,12.43
2018-12-13T10:28:31.055Z,10.23
2018-12-13T10:31:03.218Z,13.00
2018-12-13T10:33:35.201Z,11.03
2018-12-13T10:36:07.606Z,10.90
2018-12-13T10:38:39.141Z,7.67
2018-12-13T10:41:11.157Z,15.07
2018-12-13T10:43:43.196Z,9.67
2018-12-13T10:48:43.300Z,14.17
2018-12-13T10:51:17.009Z,10.23
2018-12-13T10:53:48.904Z,10.13
2018-12-13T10:56:22.473Z,10.57
2018-12-13T10:58:54.048Z,13.80
2018-12-13T11:01:31.649Z,11.90
2018-12-13T11:04:03.259Z,10.23
2018-12-13T11:06:34.518Z,10.87
2018-12-13T11:09:06.851Z,11.00
2018-12-13T11:11:38.725Z,10.20
2018-12-13T11:14:13.155Z,12.00
2018-12-13T11:16:44.691Z,12.30
2018-12-13T11:19:19.134Z,9.37
2018-12-13T11:21:50.999Z,12.67
2018-12-13T11:24:22.697Z,11.87
2018-12-13T11:27:05.757Z,10.73
2018-12-13T11:29:54.353Z,11.03
2018-12-13T11:32:28.830Z,12.70
2018-12-13T11:35:00.769Z,12.57
2018-12-13T11:37:32.530Z,13.30
2018-12-13T11:40:05.282Z,11.40
2018-12-13T11:42:36.569Z,11.77
2018-12-13T11:45:06.499Z,11.87
2018-12-13T11:47:38.969Z,10.47
2018-12-13T11:50:12.925Z,11.90
2018-12-13T11:52:42.237Z,10.30
2018-12-13T11:55:35.526Z,11.00
2018-12-13T11:58:14.059Z,11.10
2018-12-13T12:00:45.769Z,12.23
2018-12-13T12:03:17.826Z,7.90
2018-12-13T12:05:49.027Z,11.03
2018-12-13T12:08:22.628Z,7.67
2018-12-13T12:10:54.595Z,8.40
2018-12-13T12:13:29.085Z,9.33
2018-12-13T12:15:58.505Z,11.40
2018-12-13T12:18:29.936Z,7.77
2018-12-13T12:21:01.865Z,13.60
2018-12-13T12:23:36.188Z,10.63
2018-12-13T12:26:07.738Z,13.53
2018-12-13T12:28:38.936Z,11.40
2018-12-13T12:31:12.331Z,12.03
2018-12-13T12:33:43.847Z,18.70
2018-12-13T12:36:14.981Z,15.27
2018-12-13T12:38:45.064Z,12.33
2018-12-13T12:41:17.036Z,10.93
2018-12-13T12:43:51.871Z,12.50
2018-12-13T12:46:23.680Z,13.80
2018-12-13T12:48:55.706Z,9.57
2018-12-13T12:51:27.088Z,12.20
2018-12-13T12:53:57.075Z,14.97
2018-12-13T12:56:31.532Z,13.27
2018-12-13T12:59:01.106Z,17.27
2018-12-13T13:01:31.187Z,13.33
2018-12-13T13:04:03.143Z,9.50
2018-12-13T13:06:35.392Z,11.93
2018-12-13T13:09:11.140Z,12.03
2018-12-13T13:11:42.454Z,10.77
2018-12-13T13:14:11.685Z,12.27
2018-12-13T13:16:42.940Z,10.00
2018-12-13T13:19:14.517Z,11.90
2018-12-13T13:21:49.930Z,9.40
2018-12-13T13:24:22.086Z,10.77
2018-12-13T13:26:54.131Z,11.73
2018-12-13T13:29:28.383Z,12.43
2018-12-13T13:31:59.752Z,12.27
2018-12-13T13:34:31.034Z,13.43
2018-12-13T13:37:03.105Z,13.13
2018-12-13T13:39:37.595Z,10.17
2018-12-13T13:42:09.263Z,10.33
2018-12-13T13:44:44.223Z,10.33
2018-12-13T13:47:17.947Z,11.70
2018-12-13T13:49:49.280Z,11.00
2018-12-13T13:52:22.008Z,8.53
2018-12-13T13:54:56.648Z,6.83
2018-12-13T13:57:28.453Z,14.07
2018-12-13T14:00:00.192Z,10.30
2018-12-13T14:02:32.263Z,7.03
2018-12-13T14:05:04.852Z,7.17
2018-12-13T14:07:36.951Z,8.80
2018-12-13T14:10:09.141Z,7.90
2018-12-13T14:12:40.980Z,9.70
2018-12-13T14:15:13.071Z,11.90
2018-12-13T14:17:47.501Z,10.07
2018-12-13T14:20:22.188Z,10.87
2018-12-13T14:22:54.258Z,10.43
2018-12-13T14:25:28.435Z,10.73
2018-12-13T14:27:57.568Z,9.03
2018-12-13T14:30:25.682Z,8.00
2018-12-13T14:32:53.803Z,13.33
2018-12-13T14:35:35.044Z,9.00
2018-12-13T14:38:06.105Z,11.77
2018-12-13T14:40:37.248Z,8.57
2018-12-13T14:43:18.663Z,9.80
2018-12-13T14:48:51.995Z,9.50
2018-12-13T14:51:23.947Z,10.97
2018-12-13T14:53:54.468Z,11.57
2018-12-13T14:56:22.629Z,11.60
2018-12-13T14:58:54.957Z,7.77
2018-12-13T15:01:28.423Z,10.70
2018-12-13T15:04:04.131Z,8.80
2018-12-13T15:06:35.657Z,8.13
2018-12-13T15:09:06.959Z,10.27
2018-12-13T15:11:41.114Z,11.27
2018-12-13T15:14:15.160Z,10.87
2018-12-13T15:16:55.913Z,13.43
2018-12-13T15:19:27.251Z,12.43
2018-12-13T15:21:59.809Z,12.53
2018-12-13T15:24:34.289Z,11.07
2018-12-13T15:27:02.442Z,11.23
2018-12-13T15:29:30.581Z,13.40
2018-12-13T15:31:59.525Z,9.60
2018-12-13T15:34:31.601Z,9.60
2018-12-13T15:37:00.826Z,12.67
2018-12-13T15:39:30.092Z,11.03
2018-12-13T15:41:58.313Z,12.80
2018-12-13T15:44:26.475Z,14.17
2018-12-13T15:46:54.586Z,11.13
2018-12-13T15:49:23.503Z,14.00
2018-12-13T15:51:51.858Z,15.37
2018-12-13T15:54:19.947Z,20.20
2018-12-13T15:56:48.084Z,18.00
2018-12-13T15:59:16.150Z,13.73
2018-12-13T16:01:44.241Z,13.63
2018-12-13T16:04:12.377Z,16.83
2018-12-13T16:06:40.481Z,16.17
2018-12-13T16:09:08.619Z,17.40
2018-12-13T16:11:36.770Z,15.50
2018-12-13T16:14:07.486Z,12.73
2018-12-13T16:16:35.711Z,11.23
2018-12-13T16:19:04.046Z,9.23
2018-12-13T16:21:32.274Z,12.27
2018-12-13T16:24:00.410Z,12.70
2018-12-13T16:26:28.571Z,10.80
2018-12-13T16:28:56.754Z,14.80
2018-12-13T16:31:25.617Z,17.67
2018-12-13T16:33:54.005Z,17.83
2018-12-13T16:36:26.646Z,15.27
2018-12-13T16:38:55.456Z,12.47
2018-12-13T16:41:23.768Z,10.40
2018-12-13T16:43:51.925Z,9.63
2018-12-13T16:46:20.106Z,10.17
2018-12-13T16:48:48.419Z,9.77
2018-12-13T16:51:16.531Z,11.23
2018-12-13T16:53:45.450Z,10.77
2018-12-13T16:56:13.694Z,13.97
2018-12-13T16:58:41.872Z,7.97
2018-12-13T17:01:10.028Z,8.20
2018-12-13T17:03:41.083Z,10.90
2018-12-13T17:06:09.426Z,15.07
2018-12-13T17:08:38.113Z,14.50
2018-12-13T17:11:06.265Z,10.37
2018-12-13T17:13:34.498Z,14.73
2018-12-13T17:16:02.715Z,11.93
2018-12-13T17:18:30.928Z,14.10
2018-12-13T17:20:59.163Z,10.50
2018-12-13T17:23:27.373Z,11.70
2018-12-13T17:25:55.472Z,13.50
2018-12-13T17:28:23.585Z,13.20
2018-12-13T17:30:51.803Z,15.53
2018-12-13T17:33:19.936Z,18.50
2018-12-13T17:35:53.416Z,9.20
2018-12-13T17:38:22.635Z,9.77
2018-12-13T17:40:51.034Z,10.27
2018-12-13T17:43:19.224Z,9.23
2018-12-13T17:45:47.377Z,12.40
2018-12-13T17:48:15.621Z,13.53
2018-12-13T17:50:43.796Z,12.97
2018-12-13T17:53:11.996Z,20.03
2018-12-13T17:55:40.320Z,10.57
2018-12-13T17:58:10.255Z,12.27
2018-12-13T18:00:38.478Z,12.07
2018-12-13T18:03:06.744Z,10.77
2018-12-13T18:05:35.047Z,12.67
2018-12-13T18:08:03.200Z,10.03
2018-12-13T18:10:31.531Z,11.37
2018-12-13T18:12:59.704Z,10.47
2018-12-13T18:15:27.974Z,12.73
2018-12-13T18:17:56.140Z,8.50
2018-12-13T18:20:24.346Z,9.77
2018-12-13T18:22:52.635Z,7.87
2018-12-13T18:25:21.152Z,7.73
2018-12-13T18:27:49.412Z,9.73
2018-12-13T18:30:22.138Z,9.60
2018-12-13T18:32:50.350Z,9.73
2018-12-13T18:35:18.559Z,13.43
2018-12-13T18:37:46.803Z,9.67
2018-12-13T18:40:14.997Z,11.03
2018-12-13T18:42:43.175Z,10.70
2018-12-13T18:45:11.610Z,13.03
2018-12-13T18:47:39.790Z,11.63
2018-12-13T18:50:08.141Z,9.67
2018-12-13T18:52:36.674Z,13.57
2018-12-13T18:55:05.028Z,12.33
2018-12-13T18:57:33.420Z,11.17
2018-12-13T19:00:01.650Z,12.93
2018-12-13T19:02:29.818Z,11.17
2018-12-13T19:04:57.980Z,11.47
2018-12-13T19:07:26.193Z,11.37
2018-12-13T19:09:54.326Z,12.00
2018-12-13T19:12:22.489Z,11.90
2018-12-13T19:14:50.956Z,13.27
2018-12-13T19:17:19.068Z,11.93
2018-12-13T19:19:47.221Z,9.97
2018-12-13T19:22:15.421Z,10.37
2018-12-13T19:24:43.646Z,12.00
2018-12-13T19:27:11.894Z,16.50
2018-12-13T19:29:47.079Z,12.70
2018-12-13T19:32:15.262Z,12.37
2018-12-13T19:34:43.596Z,13.17
2018-12-13T19:37:13.467Z,11.73
2018-12-13T19:39:41.789Z,10.57
2018-12-13T19:42:11.532Z,11.07
2018-12-13T19:44:39.745Z,12.60
2018-12-13T19:47:08.024Z,13.30
2018-12-13T19:49:36.387Z,30.00
2018-12-13T19:52:04.645Z,10.13
2018-12-13T19:54:32.835Z,13.17
2018-12-13T19:57:06.474Z,7.53
2018-12-13T19:59:35.420Z,16.77
2018-12-13T20:02:03.767Z,10.97
2018-12-13T20:04:32.044Z,19.23
2018-12-13T20:07:00.225Z,12.47
2018-12-13T20:09:28.919Z,11.23
2018-12-13T20:11:57.489Z,17.77
2018-12-13T20:14:26.352Z,12.17
2018-12-13T20:16:55.207Z,9.50
2018-12-13T20:19:23.738Z,12.93
2018-12-13T20:21:53.395Z,12.47
2018-12-13T20:24:22.094Z,11.90
2018-12-13T20:26:50.930Z,15.97
2018-12-13T20:29:19.900Z,13.47
2018-12-13T20:31:48.539Z,10.10
2018-12-13T20:34:16.871Z,14.60
2018-12-13T20:36:45.545Z,12.73
2018-12-13T20:39:14.395Z,16.10
2018-12-13T20:41:43.086Z,16.03
2018-12-13T20:44:12.030Z,15.90
2018-12-13T20:46:40.714Z,18.40
2018-12-13T20:49:09.530Z,11.07
2018-12-13T20:51:38.130Z,11.53
2018-12-13T20:54:06.826Z,11.63
2018-12-13T20:56:35.652Z,14.40
2018-12-13T20:59:04.411Z,11.53
2018-12-13T21:01:33.024Z,13.23
2018-12-13T21:04:01.615Z,11.27
2018-12-13T21:06:34.071Z,9.17
2018-12-13T21:09:03.376Z,11.60
2018-12-13T21:11:32.066Z,15.63
2018-12-13T21:14:00.671Z,11.40
2018-12-13T21:16:29.411Z,13.40
2018-12-13T21:18:57.679Z,12.07
2018-12-13T21:21:25.897Z,10.37
2018-12-13T21:23:54.075Z,14.57
2018-12-13T21:26:22.369Z,19.83
2018-12-13T21:28:50.631Z,23.37
2018-12-13T21:31:18.853Z,14.13
2018-12-13T21:33:47.105Z,15.50
2018-12-13T21:36:15.613Z,21.10
2018-12-13T21:38:43.726Z,13.93
2018-12-13T21:41:13.768Z,15.50
2018-12-13T21:43:42.053Z,14.57
2018-12-13T21:46:10.267Z,17.00
2018-12-13T21:48:38.402Z,17.47
2018-12-13T21:51:06.550Z,14.10
2018-12-13T21:53:34.726Z,9.53
2018-12-13T21:56:03.202Z,15.67
2018-12-13T21:58:31.759Z,14.63
2018-12-13T22:01:00.274Z,16.77
2018-12-13T22:03:28.811Z,14.70
2018-12-13T22:06:02.512Z,17.37
2018-12-13T22:08:31.115Z,12.20
2018-12-13T22:10:59.827Z,10.67
2018-12-13T22:13:31.749Z,11.33
2018-12-13T22:16:00.060Z,15.63
2018-12-13T22:18:28.197Z,14.53
2018-12-13T22:20:56.311Z,17.30
2018-12-13T22:23:24.420Z,12.93
2018-12-13T22:25:57.801Z,14.80
2018-12-13T22:28:26.007Z,11.43
2018-12-13T22:30:54.834Z,13.37
2018-12-13T22:33:23.159Z,13.37
2018-12-13T22:35:51.494Z,11.60
2018-12-13T22:38:19.630Z,12.73
2018-12-13T22:40:47.802Z,7.63
2018-12-13T22:43:20.527Z,9.33
2018-12-13T22:45:46.449Z,11.03
2018-12-13T22:48:14.602Z,15.83
2018-12-13T22:50:43.293Z,11.63
2018-12-13T22:53:11.451Z,12.03
2018-12-13T22:55:39.538Z,10.27
2018-12-13T22:58:07.719Z,11.60
2018-12-13T23:00:36.144Z,13.17
2018-12-13T23:03:04.953Z,10.77
2018-12-13T23:05:34.232Z,11.17
2018-12-13T23:08:02.349Z,11.43
2018-12-13T23:10:30.677Z,13.43
2018-12-13T23:12:58.846Z,9.60
2018-12-13T23:15:28.176Z,8.97
2018-12-13T23:17:56.276Z,11.30
2018-12-13T23:20:25.413Z,14.67
2018-12-13T23:22:53.545Z,9.80
2018-12-13T23:25:21.573Z,12.23
2018-12-13T23:28:00.115Z,10.13
2018-12-13T23:30:28.215Z,13.73
2018-12-13T23:32:56.432Z,18.67
2018-12-13T23:35:24.782Z,13.67
2018-12-13T23:37:53.036Z,17.93
2018-12-13T23:40:21.181Z,9.07
2018-12-13T23:42:49.363Z,13.30
2018-12-13T23:45:17.789Z,10.73
2018-12-13T23:47:45.915Z,14.03
2018-12-13T23:50:14.040Z,9.07
2018-12-13T23:52:42.212Z,11.57
2018-12-13T23:55:10.447Z,11.40
2018-12-13T23:57:38.508Z,14.00
